createdAt,value
2019-04-29T00:02:28.468Z,8.90
2019-04-29T00:04:57.321Z,8.90
2019-04-29T00:07:26.205Z,8.90
2019-04-29T00:09:54.960Z,8.90
2019-04-29T00:12:24.290Z,8.90
2019-04-29T00:14:59.530Z,8.90
2019-04-29T00:17:35.736Z,8.80
2019-04-29T00:20:26.841Z,8.80
2019-04-29T00:22:55.833Z,8.80
2019-04-29T00:25:24.888Z,8.70
2019-04-29T00:27:53.600Z,8.70
2019-04-29T00:30:22.691Z,8.70
2019-04-29T00:32:51.433Z,8.60
2019-04-29T00:35:20.142Z,8.60
2019-04-29T00:38:06.348Z,8.60
2019-04-29T00:40:59.293Z,8.60
2019-04-29T00:43:32.655Z,8.50
2019-04-29T00:46:01.400Z,8.50
2019-04-29T00:48:30.174Z,8.50
2019-04-29T00:50:58.983Z,8.50
2019-04-29T00:53:28.257Z,8.50
2019-04-29T00:55:58.340Z,8.40
2019-04-29T00:58:27.073Z,8.40
2019-04-29T01:00:55.945Z,8.40
2019-04-29T01:03:24.691Z,8.40
2019-04-29T01:05:53.494Z,8.40
2019-04-29T01:08:22.284Z,8.30
2019-04-29T01:10:51.074Z,8.30
2019-04-29T01:13:19.846Z,8.30
2019-04-29T01:15:48.597Z,8.30
2019-04-29T01:18:17.814Z,8.30
2019-04-29T01:20:46.545Z,8.30
2019-04-29T01:23:15.251Z,8.30
2019-04-29T01:25:46.105Z,8.30
2019-04-29T01:28:37.400Z,8.30
2019-04-29T01:31:10.678Z,8.30
2019-04-29T01:33:39.686Z,8.30
2019-04-29T01:36:45.790Z,8.20
2019-04-29T01:39:15.824Z,8.20
2019-04-29T01:41:50.697Z,8.20
2019-04-29T01:44:19.483Z,8.20
2019-04-29T01:46:48.203Z,8.20
2019-04-29T01:49:17.312Z,8.20
2019-04-29T01:51:46.009Z,8.20
2019-04-29T01:54:16.191Z,8.10
2019-04-29T01:56:44.948Z,8.10
2019-04-29T01:59:13.667Z,8.10
2019-04-29T02:01:42.444Z,8.10
2019-04-29T02:04:11.199Z,8.10
2019-04-29T02:06:39.925Z,8.10
2019-04-29T02:09:16.211Z,8.10
2019-04-29T02:11:45.023Z,8.00
2019-04-29T02:14:13.744Z,8.10
2019-04-29T02:16:42.509Z,8.00
2019-04-29T02:19:11.256Z,8.00
2019-04-29T02:21:41.887Z,8.00
2019-04-29T02:24:15.180Z,8.00
2019-04-29T02:26:43.898Z,7.90
2019-04-29T02:29:12.640Z,7.90
2019-04-29T02:31:43.279Z,7.90
2019-04-29T02:34:12.147Z,7.90
2019-04-29T02:36:42.141Z,7.90
2019-04-29T02:39:21.071Z,7.90
2019-04-29T02:42:26.901Z,7.90
2019-04-29T02:44:57.368Z,7.90
2019-04-29T02:47:26.059Z,7.90
2019-04-29T02:49:56.856Z,7.90
2019-04-29T02:52:25.628Z,7.90
2019-04-29T02:54:58.161Z,7.90
2019-04-29T02:57:35.005Z,7.90
2019-04-29T03:00:20.156Z,7.90
2019-04-29T03:02:54.397Z,7.90
2019-04-29T03:05:28.379Z,7.90
2019-04-29T03:07:57.342Z,7.90
2019-04-29T03:10:26.135Z,7.90
2019-04-29T03:12:54.943Z,7.90
2019-04-29T03:15:31.619Z,7.90
2019-04-29T03:18:00.644Z,7.90
2019-04-29T03:20:38.052Z,7.90
2019-04-29T03:23:11.605Z,7.90
2019-04-29T03:25:40.370Z,7.90
2019-04-29T03:28:10.194Z,7.90
2019-04-29T03:30:38.971Z,7.90
2019-04-29T03:33:07.706Z,7.90
2019-04-29T03:35:36.443Z,7.90
2019-04-29T03:38:05.214Z,8.00
2019-04-29T03:40:33.973Z,7.90
2019-04-29T03:43:02.784Z,7.90
2019-04-29T03:45:31.541Z,7.90
2019-04-29T03:48:00.342Z,8.00
2019-04-29T03:50:30.366Z,7.90
2019-04-29T03:52:59.082Z,8.00
2019-04-29T03:55:39.195Z,8.00
2019-04-29T03:57:58.244Z,7.90
2019-04-29T04:00:26.957Z,8.00
2019-04-29T04:03:04.615Z,8.00
2019-04-29T04:05:44.685Z,8.00
2019-04-29T04:08:22.942Z,8.00
2019-04-29T04:10:51.671Z,8.00
2019-04-29T04:13:20.365Z,8.00
2019-04-29T04:15:49.127Z,8.00
2019-04-29T04:18:24.915Z,8.00
2019-04-29T04:20:54.085Z,8.00
2019-04-29T04:23:22.870Z,8.00
2019-04-29T04:25:51.682Z,8.10
2019-04-29T04:28:20.510Z,8.10
2019-04-29T04:30:49.223Z,8.10
2019-04-29T04:33:17.966Z,8.10
2019-04-29T04:35:47.030Z,8.10
2019-04-29T04:38:15.836Z,8.10
2019-04-29T04:41:06.728Z,8.10
2019-04-29T04:43:35.572Z,8.10
2019-04-29T04:46:04.446Z,8.10
2019-04-29T04:48:33.241Z,8.10
2019-04-29T04:51:02.082Z,8.20
2019-04-29T04:53:30.887Z,8.20
2019-04-29T04:56:01.353Z,8.20
2019-04-29T04:58:30.241Z,8.20
2019-04-29T05:00:59.063Z,8.30
2019-04-29T05:03:27.888Z,8.30
2019-04-29T05:05:56.654Z,8.30
2019-04-29T05:08:25.463Z,8.30
2019-04-29T05:10:54.245Z,8.30
2019-04-29T05:13:28.438Z,8.30
2019-04-29T05:15:54.411Z,8.30
2019-04-29T05:18:23.230Z,8.40
2019-04-29T05:21:11.262Z,8.40
2019-04-29T05:23:41.777Z,8.40
2019-04-29T05:26:10.724Z,8.40
2019-04-29T05:28:39.510Z,8.40
2019-04-29T05:31:08.309Z,8.40
2019-04-29T05:33:37.055Z,8.50
2019-04-29T05:36:28.099Z,8.50
2019-04-29T05:39:02.543Z,8.50
2019-04-29T05:41:34.696Z,8.50
2019-04-29T05:44:20.867Z,8.60
2019-04-29T05:46:53.217Z,8.60
2019-04-29T05:49:26.965Z,8.60
2019-04-29T05:52:29.989Z,8.60
2019-04-29T05:54:57.541Z,8.60
2019-04-29T05:57:27.076Z,8.60
2019-04-29T05:59:56.073Z,8.60
2019-04-29T06:02:33.166Z,8.70
2019-04-29T06:04:55.339Z,8.60
2019-04-29T06:07:26.776Z,8.70
2019-04-29T06:09:54.710Z,8.70
2019-04-29T06:12:23.454Z,8.70
2019-04-29T06:14:52.275Z,8.70
2019-04-29T06:17:21.096Z,8.70
2019-04-29T06:19:49.922Z,8.70
2019-04-29T06:22:18.782Z,8.70
2019-04-29T06:24:47.480Z,8.80
2019-04-29T06:27:16.219Z,8.80
2019-04-29T06:29:44.977Z,8.80
2019-04-29T06:32:14.047Z,8.80
2019-04-29T06:34:42.837Z,8.80
2019-04-29T06:37:13.164Z,8.90
2019-04-29T06:39:41.847Z,8.90
2019-04-29T06:42:10.590Z,8.90
2019-04-29T06:44:44.477Z,8.90
2019-04-29T06:47:11.136Z,9.00
2019-04-29T06:49:41.050Z,8.90
2019-04-29T06:52:09.847Z,9.00
2019-04-29T06:54:38.659Z,9.00
2019-04-29T06:57:08.201Z,9.00
2019-04-29T06:59:37.081Z,9.00
2019-04-29T07:02:09.428Z,9.10
2019-04-29T07:04:39.525Z,9.20
2019-04-29T07:07:07.053Z,9.20
2019-04-29T07:09:35.800Z,9.20
2019-04-29T07:12:08.164Z,9.20
2019-04-29T07:14:38.627Z,9.30
2019-04-29T07:17:07.546Z,9.30
2019-04-29T07:19:36.528Z,9.40
2019-04-29T07:22:05.465Z,9.40
2019-04-29T07:24:34.264Z,9.40
2019-04-29T07:27:04.507Z,9.50
2019-04-29T07:29:33.573Z,9.60
2019-04-29T07:32:04.741Z,9.60
2019-04-29T07:34:33.783Z,9.60
2019-04-29T07:37:03.367Z,9.60
2019-04-29T07:39:33.491Z,9.70
2019-04-29T07:42:03.417Z,9.80
2019-04-29T07:44:44.278Z,9.70
2019-04-29T07:47:09.181Z,9.70
2019-04-29T07:49:39.919Z,9.70
2019-04-29T07:52:09.814Z,9.70
2019-04-29T07:54:39.269Z,9.70
2019-04-29T07:57:08.040Z,9.70
2019-04-29T07:59:38.290Z,9.70
2019-04-29T08:02:07.416Z,9.60
2019-04-29T08:04:36.279Z,9.60
2019-04-29T08:07:05.812Z,9.70
2019-04-29T08:09:34.615Z,9.70
2019-04-29T08:12:03.537Z,9.60
2019-04-29T08:14:33.481Z,9.70
2019-04-29T08:17:02.313Z,9.70
2019-04-29T08:19:31.652Z,9.60
2019-04-29T08:22:00.953Z,9.70
2019-04-29T08:24:29.720Z,9.60
2019-04-29T08:26:58.535Z,9.50
2019-04-29T08:29:30.781Z,9.50
2019-04-29T08:32:02.134Z,9.50
2019-04-29T08:34:28.514Z,9.50
2019-04-29T08:36:57.296Z,9.50
2019-04-29T08:39:29.280Z,9.30
2019-04-29T08:41:58.921Z,9.50
2019-04-29T08:44:49.472Z,9.40
2019-04-29T08:47:22.949Z,9.50
2019-04-29T08:49:51.926Z,9.40
2019-04-29T08:52:20.681Z,9.50
2019-04-29T08:54:50.792Z,9.40
2019-04-29T08:57:20.175Z,9.50
2019-04-29T08:59:48.947Z,9.50
2019-04-29T09:02:33.184Z,9.60
2019-04-29T09:04:53.840Z,9.50
2019-04-29T09:07:22.115Z,9.60
2019-04-29T09:09:49.657Z,9.80
2019-04-29T09:12:19.316Z,9.80
2019-04-29T09:14:49.060Z,10.00
2019-04-29T09:17:20.444Z,9.90
2019-04-29T09:19:48.403Z,9.90
2019-04-29T09:22:19.635Z,10.00
2019-04-29T09:25:06.451Z,10.00
2019-04-29T09:27:36.064Z,9.90
2019-04-29T09:30:05.841Z,9.90
2019-04-29T09:32:38.089Z,9.90
2019-04-29T09:35:05.910Z,10.00
2019-04-29T09:37:34.711Z,10.00
2019-04-29T09:40:03.792Z,10.00
2019-04-29T09:42:45.645Z,10.00
2019-04-29T09:45:33.768Z,10.10
2019-04-29T09:48:02.605Z,10.10
2019-04-29T09:50:34.302Z,10.20
2019-04-29T09:53:01.940Z,10.10
2019-04-29T09:55:30.817Z,10.30
2019-04-29T09:57:59.620Z,10.30
2019-04-29T10:00:40.696Z,10.40
2019-04-29T10:03:18.250Z,10.40
2019-04-29T10:05:51.173Z,10.40
2019-04-29T10:08:19.976Z,10.40
2019-04-29T10:10:48.764Z,10.40
2019-04-29T10:13:17.968Z,10.40
2019-04-29T10:16:02.166Z,10.50
2019-04-29T10:18:35.482Z,10.40
2019-04-29T10:21:07.470Z,10.50
2019-04-29T10:23:36.432Z,10.50
2019-04-29T10:26:06.742Z,10.70
2019-04-29T10:28:37.393Z,10.80
2019-04-29T10:31:07.824Z,10.80
2019-04-29T10:33:36.724Z,10.90
2019-04-29T10:36:06.815Z,10.90
2019-04-29T10:38:35.698Z,10.90
2019-04-29T10:41:22.552Z,11.10
2019-04-29T10:44:08.980Z,11.00
2019-04-29T10:47:00.869Z,11.20
2019-04-29T10:49:34.717Z,11.30
2019-04-29T10:52:04.665Z,11.20
2019-04-29T10:54:33.832Z,11.10
2019-04-29T10:57:02.669Z,11.20
2019-04-29T10:59:36.100Z,11.30
2019-04-29T11:02:35.085Z,11.20
2019-04-29T11:05:30.112Z,11.20
2019-04-29T11:08:21.616Z,11.30
2019-04-29T11:11:01.860Z,11.30
2019-04-29T11:13:23.334Z,11.60
2019-04-29T11:15:52.155Z,11.50
2019-04-29T11:18:23.154Z,11.60
2019-04-29T11:20:53.783Z,11.70
2019-04-29T11:23:37.014Z,11.60
2019-04-29T11:26:32.209Z,11.70
2019-04-29T11:29:01.413Z,11.60
2019-04-29T11:31:30.955Z,11.60
2019-04-29T11:34:18.012Z,11.70
2019-04-29T11:36:47.000Z,11.70
2019-04-29T11:39:16.621Z,11.80
2019-04-29T11:41:45.528Z,11.80
2019-04-29T11:44:14.305Z,11.80
2019-04-29T11:46:44.640Z,12.00
2019-04-29T11:49:15.224Z,12.00
2019-04-29T11:52:07.896Z,12.20
2019-04-29T11:54:18.043Z,12.20
2019-04-29T11:56:46.434Z,12.40
2019-04-29T11:59:46.068Z,12.40
2019-04-29T12:02:44.682Z,12.50
2019-04-29T12:05:11.181Z,12.60
2019-04-29T12:07:40.038Z,12.90
2019-04-29T12:10:10.322Z,13.00
2019-04-29T12:12:43.617Z,13.10
2019-04-29T12:15:26.245Z,13.50
2019-04-29T12:18:11.548Z,13.40
2019-04-29T12:21:08.481Z,13.70
2019-04-29T12:23:37.456Z,14.20
2019-04-29T12:26:06.659Z,14.20
2019-04-29T12:28:38.070Z,14.20
2019-04-29T12:31:14.927Z,14.60
2019-04-29T12:33:49.472Z,14.70
2019-04-29T12:36:18.392Z,14.70
2019-04-29T12:39:05.923Z,15.00
2019-04-29T12:41:52.384Z,15.10
2019-04-29T12:44:35.278Z,15.10
2019-04-29T12:47:35.830Z,15.40
2019-04-29T12:50:05.696Z,15.90
2019-04-29T12:52:34.443Z,15.60
2019-04-29T12:55:19.259Z,15.90
2019-04-29T12:57:34.627Z,16.00
2019-04-29T13:00:07.631Z,15.90
2019-04-29T13:03:01.780Z,15.80
2019-04-29T13:05:41.644Z,16.00
2019-04-29T13:08:20.760Z,16.30
2019-04-29T13:10:51.484Z,16.50
2019-04-29T13:13:21.940Z,16.20
2019-04-29T13:16:12.422Z,16.30
2019-04-29T13:19:20.101Z,16.20
2019-04-29T13:21:45.718Z,16.30
2019-04-29T13:24:24.203Z,16.40
2019-04-29T13:26:45.046Z,16.40
2019-04-29T13:29:26.393Z,16.60
2019-04-29T13:31:44.602Z,16.70
2019-04-29T13:34:24.577Z,16.90
2019-04-29T13:37:06.066Z,16.80
2019-04-29T13:39:37.946Z,17.20
2019-04-29T13:41:57.823Z,17.50
2019-04-29T13:44:21.285Z,17.60
2019-04-29T13:47:04.855Z,18.10
2019-04-29T13:49:37.858Z,18.20
2019-04-29T13:52:06.740Z,18.00
2019-04-29T13:54:37.243Z,18.20
2019-04-29T13:57:08.877Z,17.80
2019-04-29T14:00:01.756Z,18.00
2019-04-29T14:02:36.830Z,18.30
2019-04-29T14:05:07.466Z,18.70
2019-04-29T14:07:39.198Z,18.60
2019-04-29T14:10:10.180Z,18.60
2019-04-29T14:13:09.233Z,18.70
2019-04-29T14:15:08.771Z,18.60
2019-04-29T14:17:37.560Z,18.50
2019-04-29T14:20:10.873Z,18.80
2019-04-29T14:22:38.244Z,18.80
2019-04-29T14:25:08.888Z,18.90
2019-04-29T14:27:37.770Z,18.60
2019-04-29T14:30:11.062Z,18.70
2019-04-29T14:32:42.321Z,18.70
2019-04-29T14:35:26.010Z,19.00
2019-04-29T14:37:59.926Z,19.10
2019-04-29T14:40:25.406Z,18.70
2019-04-29T14:43:28.655Z,18.60
2019-04-29T14:46:15.865Z,18.60
2019-04-29T14:48:45.817Z,18.60
2019-04-29T14:51:14.595Z,18.60
2019-04-29T14:53:55.728Z,18.70
2019-04-29T14:56:15.865Z,18.80
2019-04-29T14:58:44.957Z,18.90
2019-04-29T15:01:26.287Z,18.20
2019-04-29T15:04:16.937Z,18.50
2019-04-29T15:06:33.623Z,18.80
2019-04-29T15:09:02.535Z,18.60
2019-04-29T15:11:41.230Z,18.60
2019-04-29T15:14:47.521Z,18.40
2019-04-29T15:17:26.059Z,18.20
2019-04-29T15:20:10.094Z,17.90
2019-04-29T15:22:39.297Z,17.80
2019-04-29T15:25:08.388Z,17.70
2019-04-29T15:27:37.240Z,17.70
2019-04-29T15:30:06.832Z,17.60
2019-04-29T15:32:35.638Z,17.50
2019-04-29T15:35:04.778Z,17.60
2019-04-29T15:37:33.610Z,17.40
2019-04-29T15:40:02.622Z,17.30
2019-04-29T15:42:31.445Z,17.10
2019-04-29T15:45:00.358Z,17.00
2019-04-29T15:47:31.476Z,17.00
2019-04-29T15:50:01.819Z,17.00
2019-04-29T15:52:31.049Z,16.90
2019-04-29T15:54:59.763Z,16.70
2019-04-29T15:57:28.588Z,16.80
2019-04-29T15:59:59.941Z,16.80
2019-04-29T16:02:27.949Z,16.60
2019-04-29T16:05:04.768Z,16.50
2019-04-29T16:07:55.696Z,16.40
2019-04-29T16:10:39.496Z,16.30
2019-04-29T16:13:09.719Z,16.30
2019-04-29T16:15:38.432Z,16.30
2019-04-29T16:18:10.598Z,16.20
2019-04-29T16:20:37.688Z,16.10
2019-04-29T16:23:06.386Z,16.00
2019-04-29T16:25:40.655Z,16.00
2019-04-29T16:28:06.097Z,15.90
2019-04-29T16:30:34.959Z,15.80
2019-04-29T16:35:35.093Z,15.70
2019-04-29T16:38:11.695Z,15.70
2019-04-29T16:40:39.299Z,15.50
2019-04-29T16:43:33.312Z,15.30
2019-04-29T16:46:12.421Z,15.30
2019-04-29T16:48:41.485Z,15.20
2019-04-29T16:51:13.960Z,15.10
2019-04-29T16:53:43.657Z,15.10
2019-04-29T16:56:16.216Z,15.00
2019-04-29T16:58:43.533Z,14.90
2019-04-29T17:01:12.519Z,14.80
2019-04-29T17:03:41.313Z,14.60
2019-04-29T17:06:10.076Z,14.60
2019-04-29T17:09:03.311Z,14.50
2019-04-29T17:11:31.295Z,14.40
2019-04-29T17:14:03.500Z,14.30
2019-04-29T17:16:30.829Z,14.10
2019-04-29T17:18:59.652Z,14.10
2019-04-29T17:21:28.497Z,14.00
2019-04-29T17:23:58.156Z,13.90
2019-04-29T17:26:33.958Z,13.80
2019-04-29T17:29:48.878Z,13.70
2019-04-29T17:32:49.037Z,13.60
2019-04-29T17:35:15.775Z,15.70
2019-04-29T17:35:21.615Z,13.50
2019-04-29T17:37:54.483Z,13.40
2019-04-29T17:40:23.633Z,13.20
2019-04-29T17:43:04.943Z,13.10
2019-04-29T17:45:41.208Z,13.00
2019-04-29T17:48:19.583Z,13.00
2019-04-29T17:50:52.532Z,12.80
2019-04-29T17:53:27.871Z,12.70
2019-04-29T17:56:03.146Z,12.60
2019-04-29T17:58:55.879Z,12.50
2019-04-29T18:01:43.088Z,12.40
2019-04-29T18:04:36.056Z,12.30
2019-04-29T18:07:40.447Z,12.20
2019-04-29T18:10:29.282Z,12.20
2019-04-29T18:12:55.008Z,12.10
2019-04-29T18:15:40.376Z,11.80
2019-04-29T18:18:05.378Z,11.70
2019-04-29T18:20:59.536Z,11.50
2019-04-29T18:24:02.773Z,11.50
2019-04-29T18:26:36.385Z,11.40
2019-04-29T18:29:08.054Z,11.30
2019-04-29T18:31:36.872Z,11.00
2019-04-29T18:34:06.145Z,11.00
2019-04-29T18:36:35.290Z,11.00
2019-04-29T18:39:07.979Z,10.80
2019-04-29T18:41:38.877Z,10.70
2019-04-29T18:44:18.694Z,10.70
2019-04-29T18:46:39.144Z,10.50
2019-04-29T18:49:08.288Z,10.40
2019-04-29T18:51:37.165Z,10.30
2019-04-29T18:54:07.785Z,10.10
2019-04-29T18:56:38.486Z,10.20
2019-04-29T18:59:07.208Z,10.10
2019-04-29T19:01:36.057Z,10.00
2019-04-29T19:04:20.944Z,9.90
2019-04-29T19:06:51.244Z,9.80
2019-04-29T19:09:22.415Z,9.70
2019-04-29T19:11:53.197Z,9.60
2019-04-29T19:14:25.540Z,9.50
2019-04-29T19:17:00.112Z,9.50
2019-04-29T19:19:30.728Z,9.40
2019-04-29T19:22:00.683Z,9.30
2019-04-29T19:24:31.560Z,9.40
2019-04-29T19:27:09.638Z,9.20
2019-04-29T19:29:38.795Z,9.20
2019-04-29T19:32:12.795Z,9.10
2019-04-29T19:34:43.415Z,9.00
2019-04-29T19:37:24.959Z,9.00
2019-04-29T19:39:59.522Z,8.90
2019-04-29T19:42:35.883Z,8.80
2019-04-29T19:45:08.095Z,8.80
2019-04-29T19:47:36.046Z,8.70
2019-04-29T19:50:10.390Z,8.60
2019-04-29T19:52:42.100Z,8.60
2019-04-29T19:55:12.834Z,8.50
2019-04-29T19:57:48.127Z,8.40
2019-04-29T20:00:18.343Z,8.40
2019-04-29T20:02:50.131Z,8.40
2019-04-29T20:05:31.592Z,8.20
2019-04-29T20:07:59.029Z,8.20
2019-04-29T20:10:30.542Z,8.10
2019-04-29T20:13:04.090Z,8.10
2019-04-29T20:15:37.918Z,8.00
2019-04-29T20:18:43.682Z,8.00
2019-04-29T20:23:27.672Z,7.90
2019-04-29T20:23:53.284Z,7.90
2019-04-29T20:26:29.628Z,7.90
2019-04-29T20:28:57.022Z,7.80
2019-04-29T20:31:29.839Z,7.70
2019-04-29T20:34:11.334Z,7.70
2019-04-29T20:36:42.907Z,7.70
2019-04-29T20:39:14.856Z,7.60
2019-04-29T20:41:44.554Z,7.50
2019-04-29T20:44:12.757Z,7.50
2019-04-29T20:47:00.595Z,7.50
2019-04-29T20:49:12.473Z,7.40
2019-04-29T20:51:49.628Z,7.40
2019-04-29T20:54:19.458Z,7.30
2019-04-29T20:56:47.436Z,7.30
2019-04-29T20:59:16.427Z,7.20
2019-04-29T21:01:51.091Z,7.20
2019-04-29T21:04:30.932Z,7.10
2019-04-29T21:06:59.757Z,7.20
2019-04-29T21:09:22.030Z,7.10
2019-04-29T21:12:00.667Z,7.00
2019-04-29T21:14:43.774Z,7.00
2019-04-29T21:17:12.669Z,6.90
2019-04-29T21:19:41.487Z,6.90
2019-04-29T21:22:12.918Z,6.90
2019-04-29T21:24:40.722Z,6.80
2019-04-29T21:27:09.752Z,6.80
2019-04-29T21:29:38.853Z,6.80
2019-04-29T21:32:08.636Z,6.80
2019-04-29T21:34:49.647Z,6.70
2019-04-29T21:37:39.921Z,6.60
2019-04-29T21:40:37.969Z,6.60
2019-04-29T21:43:21.641Z,6.50
2019-04-29T21:45:50.588Z,6.50
2019-04-29T21:48:19.450Z,6.50
2019-04-29T21:50:48.325Z,6.40
2019-04-29T21:53:17.129Z,6.40
2019-04-29T21:55:45.943Z,6.40
2019-04-29T21:58:15.069Z,6.30
2019-04-29T22:00:45.458Z,6.30
2019-04-29T22:03:15.389Z,6.30
2019-04-29T22:05:45.092Z,6.20
2019-04-29T22:08:16.247Z,6.10
2019-04-29T22:10:45.218Z,6.10
2019-04-29T22:13:14.970Z,6.10
2019-04-29T22:15:45.568Z,6.10
2019-04-29T22:18:17.810Z,6.00
2019-04-29T22:20:46.293Z,6.10
2019-04-29T22:23:17.155Z,6.00
2019-04-29T22:25:46.940Z,6.00
2019-04-29T22:28:19.704Z,5.90
2019-04-29T22:30:49.922Z,5.90
2019-04-29T22:33:18.072Z,5.90
2019-04-29T22:35:46.881Z,5.80
2019-04-29T22:38:16.747Z,5.80
2019-04-29T22:40:46.193Z,5.80
2019-04-29T22:43:27.019Z,5.70
2019-04-29T22:45:55.764Z,5.70
2019-04-29T22:48:25.048Z,5.70
2019-04-29T22:50:55.497Z,5.70
2019-04-29T22:53:26.921Z,5.60
2019-04-29T22:55:56.572Z,5.60
2019-04-29T22:58:25.569Z,5.50
2019-04-29T23:00:54.396Z,5.40
2019-04-29T23:03:23.100Z,5.40
2019-04-29T23:05:51.908Z,5.50
2019-04-29T23:08:20.753Z,5.40
2019-04-29T23:10:49.576Z,5.40
2019-04-29T23:13:18.446Z,5.30
2019-04-29T23:15:47.189Z,5.30
2019-04-29T23:18:24.579Z,5.30
2019-04-29T23:21:03.922Z,5.30
2019-04-29T23:23:51.182Z,5.30
2019-04-29T23:26:20.021Z,5.30
2019-04-29T23:28:48.755Z,5.30
2019-04-29T23:31:17.892Z,5.30
2019-04-29T23:33:46.718Z,5.20
2019-04-29T23:36:16.029Z,5.20
2019-04-29T23:38:45.184Z,5.20
2019-04-29T23:41:15.305Z,5.20
2019-04-29T23:43:45.630Z,5.20
2019-04-29T23:46:16.162Z,5.20
2019-04-29T23:48:46.814Z,5.10
2019-04-29T23:51:15.696Z,5.20
2019-04-29T23:53:45.299Z,5.10
2019-04-29T23:56:15.365Z,5.10
2019-04-29T23:59:02.307Z,5.10
